»·PEaware :: AAL559 KPHX-KSAN

AAL559 :: KPHX-KSAN

FLIGHT INFORMATION

Flight Status: Arrived
Operator:
American Airlines
More flights by this operator :: More flights under this callsign
Pilot: Sam F. (29954)
Aircraft: BOEING 737-800
(B738)
More flights by this aircraft type
Origin: KPHX Phoenix Sky Harbor Intl
United States
Destination: KSAN San Diego Intl-Lindbergh
United States
More flights between these airports :: More routes between these airports
Route: FYRBD1 MOHAK J2 HOGGZ LUCKI1
File this flight plan on PilotEdge
Remarks: RMK / SIMBRIEF
Altitude:
(Current/Filed)
32,000ft
Speed:
(Current/Filed)
478kts
Departed: 24-Jul-20 12:41 PM
Arrived: 24-Jul-20 01:31 PM
Distance/Time
Traveled:
264nm/0:50
Distance/Time
To Go:
Arrived

Flight Plot

Page will automatically refresh every two minutes.


Map Options




Map Legend


Flown Route
Filed Route
Departure Airport
Arrival Airport
Navaid (VOR, NDB)
Fix

Horizontal Profiles

Position Reports

Time Latitude Longitude Heading Altitude Ground
Speed
24-Jul-20 11:47 33.433410 -111.996892 0 1141ft 0kts
24-Jul-20 11:54 33.433410 -111.996892 0 1141ft 0kts
24-Jul-20 12:04 33.437258 -112.002468 91 1140ft 0kts
24-Jul-20 12:05 33.437258 -112.002468 91 1140ft 0kts
24-Jul-20 12:06 33.437258 -112.002468 91 1140ft 0kts
24-Jul-20 12:07 33.437258 -112.002468 91 1140ft 0kts
24-Jul-20 12:08 33.437258 -112.002468 91 1140ft 0kts
24-Jul-20 12:09 33.437258 -112.002468 91 1140ft 0kts
24-Jul-20 12:10 33.437258 -112.002468 91 1140ft 0kts
24-Jul-20 12:11 33.437258 -112.002468 91 1140ft 0kts
24-Jul-20 12:12 33.437258 -112.002469 91 1140ft 0kts
24-Jul-20 12:13 33.437258 -112.002469 91 1140ft 0kts
24-Jul-20 12:14 33.437258 -112.002469 91 1140ft 0kts
24-Jul-20 12:15 33.437258 -112.002469 91 1140ft 0kts
24-Jul-20 12:16 33.437258 -112.002469 91 1140ft 0kts
24-Jul-20 12:17 33.437258 -112.002469 91 1140ft 0kts
24-Jul-20 12:25 33.437258 -112.002469 91 1140ft 0kts
24-Jul-20 12:26 33.437258 -112.002469 91 1140ft 0kts
24-Jul-20 12:27 33.437258 -112.002469 91 1140ft 0kts
24-Jul-20 12:28 33.437258 -112.002469 91 1140ft 0kts
24-Jul-20 12:29 33.437264 -112.002870 91 1140ft 2kts
24-Jul-20 12:30 33.437575 -112.003028 0 1140ft 7kts
24-Jul-20 12:31 33.437933 -112.003023 0 1140ft 0kts
24-Jul-20 12:32 33.437933 -112.003023 0 1140ft 0kts
24-Jul-20 12:33 33.438054 -112.003023 0 1140ft 0kts
24-Jul-20 12:34 33.438995 -112.003973 272 1140ft 10kts
24-Jul-20 12:35 33.438991 -112.008733 269 1140ft 15kts
24-Jul-20 12:36 33.438992 -112.014095 269 1140ft 16kts
24-Jul-20 12:37 33.439003 -112.019770 270 1140ft 17kts
24-Jul-20 12:38 33.439018 -112.025584 270 1140ft 17kts
24-Jul-20 12:39 33.440014 -112.029679 358 1140ft 13kts
24-Jul-20 12:40 33.440825 -112.010468 89 1200ft 171kts
24-Jul-20 12:41 33.440822 -111.955130 98 3796ft 184kts
24-Jul-20 12:42 33.435684 -111.886326 98 5009ft 234kts
24-Jul-20 12:43 33.383848 -111.843746 195 7362ft 253kts
24-Jul-20 12:44 33.353366 -111.911987 278 9648ft 262kts
24-Jul-20 12:45 33.362133 -112.003306 265 11221ft 301kts
24-Jul-20 12:46 33.314875 -112.094864 233 12400ft 354kts
24-Jul-20 12:47 33.251906 -112.196931 233 13588ft 404kts
24-Jul-20 12:48 33.181727 -112.310780 233 15215ft 437kts
24-Jul-20 12:49 33.107766 -112.430399 233 17350ft 452kts
24-Jul-20 12:50 33.032433 -112.551799 234 19808ft 454kts
24-Jul-20 12:51 32.961707 -112.679013 246 21787ft 462kts
24-Jul-20 12:52 32.935500 -112.829576 259 24155ft 456kts
24-Jul-20 12:53 32.915857 -112.977279 259 26548ft 441kts
24-Jul-20 12:54 32.895579 -113.125064 259 27778ft 449kts
24-Jul-20 12:55 32.874694 -113.273484 259 28934ft 456kts
24-Jul-20 12:56 32.853855 -113.422913 259 30378ft 452kts
24-Jul-20 12:57 32.833245 -113.569677 259 31655ft 448kts
24-Jul-20 12:58 32.812555 -113.715938 259 32823ft 444kts
24-Jul-20 12:59 32.791758 -113.861555 259 33472ft 451kts
24-Jul-20 13:00 32.775567 -114.009879 266 33941ft 452kts
24-Jul-20 13:01 32.778428 -114.159566 271 33946ft 452kts
24-Jul-20 13:02 32.784692 -114.309833 273 33945ft 453kts
24-Jul-20 13:03 32.807225 -114.457944 285 33931ft 455kts
24-Jul-20 13:04 32.846592 -114.601151 287 33927ft 455kts
24-Jul-20 13:05 32.873726 -114.748504 274 33926ft 453kts
24-Jul-20 13:06 32.875472 -114.898475 267 33105ft 447kts
24-Jul-20 13:07 32.871980 -115.046926 267 30671ft 447kts
24-Jul-20 13:08 32.868451 -115.195788 267 27668ft 450kts
24-Jul-20 13:09 32.863008 -115.345744 262 24865ft 439kts
24-Jul-20 13:10 32.845159 -115.481809 259 23925ft 393kts
24-Jul-20 13:11 32.825031 -115.606137 257 22210ft 376kts
24-Jul-20 13:12 32.805231 -115.726711 257 20548ft 361kts
24-Jul-20 13:13 32.786394 -115.843053 259 18961ft 349kts
24-Jul-20 13:14 32.776921 -115.958825 262 17271ft 343kts
24-Jul-20 13:15 32.768529 -116.070812 262 15643ft 335kts
24-Jul-20 13:16 32.760218 -116.180100 262 14070ft 327kts
24-Jul-20 13:17 32.752003 -116.286727 262 12587ft 319kts
24-Jul-20 13:18 32.743945 -116.390700 262 11165ft 310kts
24-Jul-20 13:19 32.736135 -116.490533 262 10211ft 283kts
24-Jul-20 13:20 32.726648 -116.582395 261 8796ft 281kts
24-Jul-20 13:21 32.718610 -116.675066 263 7822ft 276kts
24-Jul-20 13:22 32.711709 -116.765306 263 6391ft 269kts
24-Jul-20 13:23 32.697934 -116.849397 249 5481ft 250kts
24-Jul-20 13:24 32.675492 -116.922910 253 4314ft 216kts
24-Jul-20 13:25 32.683796 -116.985201 285 3496ft 186kts
24-Jul-20 13:26 32.698140 -117.043636 285 2647ft 182kts
24-Jul-20 13:27 32.710106 -117.092640 284 1827ft 143kts
24-Jul-20 13:28 32.721198 -117.138447 284 915ft 144kts
24-Jul-20 13:29 32.732118 -117.183680 284 21ft 135kts
24-Jul-20 13:30 32.736156 -117.201922 202 19ft 10kts
24-Jul-20 13:31 32.735521 -117.202184 161 19ft 1kts
24-Jul-20 13:32 32.734879 -117.201671 211 19ft 0kts
24-Jul-20 13:33 32.733260 -117.202634 164 19ft 11kts
24-Jul-20 13:34 32.732447 -117.201547 94 19ft 0kts
24-Jul-20 13:35 32.732447 -117.201547 94 19ft 0kts
24-Jul-20 13:36 32.732447 -117.201547 94 19ft 0kts

Navigation Log

Ident Type
Flight plan parsing failed, navigation log unavailable